sensor_id;sensor_type;location;lat;lon;timestamp;temperature;humidity
18613;DHT22;9436;52.152;21.032;2022-12-07T00:01:06;3.40;99.90
18613;DHT22;9436;52.152;21.032;2022-12-07T00:03:34;3.40;99.90
18613;DHT22;9436;52.152;21.032;2022-12-07T00:06:02;3.60;99.90
18613;DHT22;9436;52.152;21.032;2022-12-07T00:08:30;3.60;99.90
18613;DHT22;9436;52.152;21.032;2022-12-07T00:11:01;3.70;99.90
18613;DHT22;9436;52.152;21.032;2022-12-07T00:13:29;3.70;99.90
18613;DHT22;9436;52.152;21.032;2022-12-07T00:16:00;3.70;99.90
18613;DHT22;9436;52.152;21.032;2022-12-07T00:18:27;3.70;99.90
18613;DHT22;9436;52.152;21.032;2022-12-07T00:20:59;3.60;99.90
18613;DHT22;9436;52.152;21.032;2022-12-07T00:23:26;3.60;99.90
18613;DHT22;9436;52.152;21.032;2022-12-07T00:25:54;3.60;99.90
18613;DHT22;9436;52.152;21.032;2022-12-07T00:28:21;3.60;99.90
18613;DHT22;9436;52.152;21.032;2022-12-07T00:30:48;3.60;99.90
18613;DHT22;9436;52.152;21.032;2022-12-07T00:33:16;3.70;99.90
18613;DHT22;9436;52.152;21.032;2022-12-07T00:35:43;3.70;99.90
18613;DHT22;9436;52.152;21.032;2022-12-07T00:38:10;3.60;99.90
18613;DHT22;9436;52.152;21.032;2022-12-07T00:40:37;3.70;99.90
18613;DHT22;9436;52.152;21.032;2022-12-07T00:43:04;3.70;99.90
18613;DHT22;9436;52.152;21.032;2022-12-07T00:45:31;3.70;99.90
18613;DHT22;9436;52.152;21.032;2022-12-07T00:47:58;3.70;99.90
18613;DHT22;9436;52.152;21.032;2022-12-07T00:50:27;3.70;99.90
18613;DHT22;9436;52.152;21.032;2022-12-07T00:52:54;3.60;99.90
18613;DHT22;9436;52.152;21.032;2022-12-07T00:55:21;3.70;99.90
18613;DHT22;9436;52.152;21.032;2022-12-07T00:57:48;3.70;99.90
18613;DHT22;9436;52.152;21.032;2022-12-07T01:00:16;3.70;99.90
18613;DHT22;9436;52.152;21.032;2022-12-07T01:02:43;3.80;99.90
18613;DHT22;9436;52.152;21.032;2022-12-07T01:05:10;3.80;99.90
18613;DHT22;9436;52.152;21.032;2022-12-07T01:07:38;3.90;99.90
18613;DHT22;9436;52.152;21.032;2022-12-07T01:10:06;4.00;99.90
18613;DHT22;9436;52.152;21.032;2022-12-07T01:12:33;4.00;99.90
18613;DHT22;9436;52.152;21.032;2022-12-07T01:15:00;4.00;99.90
18613;DHT22;9436;52.152;21.032;2022-12-07T01:17:28;4.10;99.90
18613;DHT22;9436;52.152;21.032;2022-12-07T01:19:55;4.10;99.90
18613;DHT22;9436;52.152;21.032;2022-12-07T01:22:22;4.30;99.90
18613;DHT22;9436;52.152;21.032;2022-12-07T01:24:51;4.30;99.90
18613;DHT22;9436;52.152;21.032;2022-12-07T01:27:18;4.40;99.90
18613;DHT22;9436;52.152;21.032;2022-12-07T01:29:45;4.50;99.90
18613;DHT22;9436;52.152;21.032;2022-12-07T01:32:12;4.50;99.90
18613;DHT22;9436;52.152;21.032;2022-12-07T01:34:39;4.50;99.90
18613;DHT22;9436;52.152;21.032;2022-12-07T01:37:06;4.60;99.90
18613;DHT22;9436;52.152;21.032;2022-12-07T01:39:33;4.50;99.90
18613;DHT22;9436;52.152;21.032;2022-12-07T01:42:03;4.50;99.90
18613;DHT22;9436;52.152;21.032;2022-12-07T01:44:31;4.50;99.90
18613;DHT22;9436;52.152;21.032;2022-12-07T01:46:59;4.60;99.90
18613;DHT22;9436;52.152;21.032;2022-12-07T01:49:31;4.70;99.90
18613;DHT22;9436;52.152;21.032;2022-12-07T01:52:10;4.70;99.90
18613;DHT22;9436;52.152;21.032;2022-12-07T01:54:40;4.70;99.90
18613;DHT22;9436;52.152;21.032;2022-12-07T01:57:09;4.60;99.90
18613;DHT22;9436;52.152;21.032;2022-12-07T01:59:37;4.70;99.90
18613;DHT22;9436;52.152;21.032;2022-12-07T02:02:10;4.60;99.90
18613;DHT22;9436;52.152;21.032;2022-12-07T02:04:39;4.70;99.90
18613;DHT22;9436;52.152;21.032;2022-12-07T02:07:06;4.80;99.90
18613;DHT22;9436;52.152;21.032;2022-12-07T02:09:33;4.80;99.90
18613;DHT22;9436;52.152;21.032;2022-12-07T02:12:00;4.80;99.90
18613;DHT22;9436;52.152;21.032;2022-12-07T02:14:29;4.90;99.90
18613;DHT22;9436;52.152;21.032;2022-12-07T02:17:07;4.80;99.90
18613;DHT22;9436;52.152;21.032;2022-12-07T02:20:00;4.80;99.90
18613;DHT22;9436;52.152;21.032;2022-12-07T02:23:03;4.70;99.90
18613;DHT22;9436;52.152;21.032;2022-12-07T02:25:49;4.70;99.90
18613;DHT22;9436;52.152;21.032;2022-12-07T02:28:28;4.70;99.90
18613;DHT22;9436;52.152;21.032;2022-12-07T02:31:01;4.70;99.90
18613;DHT22;9436;52.152;21.032;2022-12-07T02:33:31;4.60;99.90
18613;DHT22;9436;52.152;21.032;2022-12-07T02:36:04;4.60;99.90
18613;DHT22;9436;52.152;21.032;2022-12-07T02:38:37;4.50;99.90
18613;DHT22;9436;52.152;21.032;2022-12-07T02:41:09;4.50;99.90
18613;DHT22;9436;52.152;21.032;2022-12-07T02:43:40;4.50;99.90
18613;DHT22;9436;52.152;21.032;2022-12-07T02:46:13;4.40;99.90
18613;DHT22;9436;52.152;21.032;2022-12-07T02:48:42;4.40;99.90
18613;DHT22;9436;52.152;21.032;2022-12-07T02:51:09;4.30;99.90
18613;DHT22;9436;52.152;21.032;2022-12-07T02:53:39;4.30;99.90
18613;DHT22;9436;52.152;21.032;2022-12-07T02:56:16;4.20;99.90
18613;DHT22;9436;52.152;21.032;2022-12-07T02:58:54;4.30;99.90
18613;DHT22;9436;52.152;21.032;2022-12-07T03:01:30;4.20;99.90
18613;DHT22;9436;52.152;21.032;2022-12-07T03:04:11;4.30;99.90
18613;DHT22;9436;52.152;21.032;2022-12-07T03:06:51;4.30;99.90
18613;DHT22;9436;52.152;21.032;2022-12-07T03:09:23;4.30;99.90
18613;DHT22;9436;52.152;21.032;2022-12-07T03:11:58;4.40;99.90
18613;DHT22;9436;52.152;21.032;2022-12-07T03:14:30;4.40;99.90
18613;DHT22;9436;52.152;21.032;2022-12-07T03:17:02;4.30;99.90
18613;DHT22;9436;52.152;21.032;2022-12-07T03:19:34;4.30;99.90
18613;DHT22;9436;52.152;21.032;2022-12-07T03:22:05;4.20;99.90
18613;DHT22;9436;52.152;21.032;2022-12-07T03:24:39;4.30;99.90
18613;DHT22;9436;52.152;21.032;2022-12-07T03:27:10;4.30;99.90
18613;DHT22;9436;52.152;21.032;2022-12-07T03:29:42;4.20;99.90
18613;DHT22;9436;52.152;21.032;2022-12-07T03:32:16;4.10;99.90
18613;DHT22;9436;52.152;21.032;2022-12-07T03:34:49;4.20;99.90
18613;DHT22;9436;52.152;21.032;2022-12-07T03:37:21;4.10;99.90
18613;DHT22;9436;52.152;21.032;2022-12-07T03:39:58;4.10;99.90
18613;DHT22;9436;52.152;21.032;2022-12-07T03:42:29;4.00;99.90
18613;DHT22;9436;52.152;21.032;2022-12-07T03:44:56;4.20;99.90
18613;DHT22;9436;52.152;21.032;2022-12-07T03:47:30;4.30;99.90
18613;DHT22;9436;52.152;21.032;2022-12-07T03:50:02;4.30;99.90
18613;DHT22;9436;52.152;21.032;2022-12-07T03:52:33;4.30;99.90
18613;DHT22;9436;52.152;21.032;2022-12-07T03:55:05;4.20;99.90
18613;DHT22;9436;52.152;21.032;2022-12-07T03:57:34;4.20;99.90
18613;DHT22;9436;52.152;21.032;2022-12-07T04:00:04;4.10;99.90
18613;DHT22;9436;52.152;21.032;2022-12-07T04:02:33;4.20;99.90
18613;DHT22;9436;52.152;21.032;2022-12-07T04:05:02;4.20;99.90
18613;DHT22;9436;52.152;21.032;2022-12-07T04:07:29;4.10;99.90
18613;DHT22;9436;52.152;21.032;2022-12-07T04:16:40;4.10;99.90
18613;DHT22;9436;52.152;21.032;2022-12-07T04:19:09;4.10;99.90
18613;DHT22;9436;52.152;21.032;2022-12-07T04:21:36;4.20;99.90
18613;DHT22;9436;52.152;21.032;2022-12-07T04:24:03;4.30;99.90
18613;DHT22;9436;52.152;21.032;2022-12-07T04:26:31;4.30;99.90
18613;DHT22;9436;52.152;21.032;2022-12-07T04:28:58;4.20;99.90
18613;DHT22;9436;52.152;21.032;2022-12-07T04:31:25;4.30;99.90
18613;DHT22;9436;52.152;21.032;2022-12-07T04:33:52;4.20;99.90
18613;DHT22;9436;52.152;21.032;2022-12-07T04:36:20;4.20;99.90
18613;DHT22;9436;52.152;21.032;2022-12-07T04:38:48;4.20;99.90
18613;DHT22;9436;52.152;21.032;2022-12-07T04:41:15;4.10;99.90
18613;DHT22;9436;52.152;21.032;2022-12-07T04:43:42;4.20;99.90
18613;DHT22;9436;52.152;21.032;2022-12-07T04:46:09;4.10;99.90
18613;DHT22;9436;52.152;21.032;2022-12-07T04:48:36;4.00;99.90
18613;DHT22;9436;52.152;21.032;2022-12-07T04:51:04;4.00;99.90
18613;DHT22;9436;52.152;21.032;2022-12-07T04:53:32;4.00;99.90
18613;DHT22;9436;52.152;21.032;2022-12-07T04:55:59;4.10;99.90
18613;DHT22;9436;52.152;21.032;2022-12-07T04:58:26;4.00;99.90
18613;DHT22;9436;52.152;21.032;2022-12-07T05:00:55;3.90;99.90
18613;DHT22;9436;52.152;21.032;2022-12-07T05:03:22;3.80;99.90
18613;DHT22;9436;52.152;21.032;2022-12-07T05:05:49;3.80;99.90
18613;DHT22;9436;52.152;21.032;2022-12-07T05:08:16;3.80;99.90
18613;DHT22;9436;52.152;21.032;2022-12-07T05:10:44;3.70;99.90
18613;DHT22;9436;52.152;21.032;2022-12-07T05:13:11;3.80;99.90
18613;DHT22;9436;52.152;21.032;2022-12-07T05:15:39;3.70;99.90
18613;DHT22;9436;52.152;21.032;2022-12-07T05:18:08;3.70;99.90
18613;DHT22;9436;52.152;21.032;2022-12-07T05:20:35;3.70;99.90
18613;DHT22;9436;52.152;21.032;2022-12-07T05:23:02;3.80;99.90
18613;DHT22;9436;52.152;21.032;2022-12-07T05:25:29;3.70;99.90
18613;DHT22;9436;52.152;21.032;2022-12-07T05:27:58;3.60;99.90
18613;DHT22;9436;52.152;21.032;2022-12-07T05:30:27;3.70;99.90
18613;DHT22;9436;52.152;21.032;2022-12-07T05:32:55;3.70;99.90
18613;DHT22;9436;52.152;21.032;2022-12-07T05:35:22;3.70;99.90
18613;DHT22;9436;52.152;21.032;2022-12-07T05:37:49;3.80;99.90
18613;DHT22;9436;52.152;21.032;2022-12-07T05:40:16;3.80;99.90
18613;DHT22;9436;52.152;21.032;2022-12-07T05:42:44;3.70;99.90
18613;DHT22;9436;52.152;21.032;2022-12-07T05:45:13;3.80;99.90
18613;DHT22;9436;52.152;21.032;2022-12-07T05:47:40;3.80;99.90
18613;DHT22;9436;52.152;21.032;2022-12-07T05:50:07;3.70;99.90
18613;DHT22;9436;52.152;21.032;2022-12-07T05:52:34;3.70;99.90
18613;DHT22;9436;52.152;21.032;2022-12-07T05:55:01;3.80;99.90
18613;DHT22;9436;52.152;21.032;2022-12-07T05:57:29;3.70;99.90
18613;DHT22;9436;52.152;21.032;2022-12-07T05:59:56;3.80;99.90
18613;DHT22;9436;52.152;21.032;2022-12-07T06:02:23;3.80;99.90
18613;DHT22;9436;52.152;21.032;2022-12-07T06:04:50;3.70;99.90
18613;DHT22;9436;52.152;21.032;2022-12-07T06:07:17;3.60;99.90
18613;DHT22;9436;52.152;21.032;2022-12-07T06:09:44;3.70;99.90
18613;DHT22;9436;52.152;21.032;2022-12-07T06:12:12;3.60;99.90
18613;DHT22;9436;52.152;21.032;2022-12-07T06:14:56;3.70;99.90
18613;DHT22;9436;52.152;21.032;2022-12-07T06:17:25;3.80;99.90
18613;DHT22;9436;52.152;21.032;2022-12-07T06:19:52;3.80;99.90
18613;DHT22;9436;52.152;21.032;2022-12-07T06:22:19;3.80;99.90
18613;DHT22;9436;52.152;21.032;2022-12-07T06:24:46;3.80;99.90
18613;DHT22;9436;52.152;21.032;2022-12-07T06:27:13;3.80;99.90
18613;DHT22;9436;52.152;21.032;2022-12-07T06:29:40;4.00;99.90
18613;DHT22;9436;52.152;21.032;2022-12-07T06:32:07;3.90;99.90
18613;DHT22;9436;52.152;21.032;2022-12-07T06:34:36;4.10;99.90
18613;DHT22;9436;52.152;21.032;2022-12-07T06:37:03;4.70;99.90
18613;DHT22;9436;52.152;21.032;2022-12-07T06:39:30;5.20;99.90
18613;DHT22;9436;52.152;21.032;2022-12-07T06:41:59;5.60;99.90
18613;DHT22;9436;52.152;21.032;2022-12-07T06:44:26;5.80;99.90
18613;DHT22;9436;52.152;21.032;2022-12-07T06:46:53;6.00;99.90
18613;DHT22;9436;52.152;21.032;2022-12-07T06:49:20;6.10;99.90
18613;DHT22;9436;52.152;21.032;2022-12-07T06:51:48;6.20;99.90
18613;DHT22;9436;52.152;21.032;2022-12-07T06:54:16;6.30;99.90
18613;DHT22;9436;52.152;21.032;2022-12-07T06:56:43;6.30;99.90
18613;DHT22;9436;52.152;21.032;2022-12-07T06:59:10;6.50;99.90
18613;DHT22;9436;52.152;21.032;2022-12-07T07:01:37;6.60;99.90
18613;DHT22;9436;52.152;21.032;2022-12-07T07:04:04;6.60;99.90
18613;DHT22;9436;52.152;21.032;2022-12-07T07:06:31;6.40;99.90
18613;DHT22;9436;52.152;21.032;2022-12-07T07:09:00;6.30;99.90
18613;DHT22;9436;52.152;21.032;2022-12-07T07:11:27;5.80;99.90
18613;DHT22;9436;52.152;21.032;2022-12-07T07:13:54;5.50;99.90
18613;DHT22;9436;52.152;21.032;2022-12-07T07:16:23;5.00;99.90
18613;DHT22;9436;52.152;21.032;2022-12-07T07:18:50;4.90;99.90
18613;DHT22;9436;52.152;21.032;2022-12-07T07:21:17;4.80;99.90
18613;DHT22;9436;52.152;21.032;2022-12-07T07:23:44;4.80;99.90
18613;DHT22;9436;52.152;21.032;2022-12-07T07:26:13;4.80;99.90
18613;DHT22;9436;52.152;21.032;2022-12-07T07:28:41;4.80;99.90
18613;DHT22;9436;52.152;21.032;2022-12-07T07:31:08;4.80;99.90
18613;DHT22;9436;52.152;21.032;2022-12-07T07:33:36;4.70;99.90
18613;DHT22;9436;52.152;21.032;2022-12-07T07:36:03;4.70;99.90
18613;DHT22;9436;52.152;21.032;2022-12-07T07:38:30;4.80;99.90
18613;DHT22;9436;52.152;21.032;2022-12-07T07:40:57;4.80;99.90
18613;DHT22;9436;52.152;21.032;2022-12-07T07:43:26;4.70;99.90
18613;DHT22;9436;52.152;21.032;2022-12-07T07:45:53;4.60;99.90
18613;DHT22;9436;52.152;21.032;2022-12-07T07:48:20;4.50;99.90
18613;DHT22;9436;52.152;21.032;2022-12-07T07:50:48;4.40;99.90
18613;DHT22;9436;52.152;21.032;2022-12-07T07:53:15;4.60;99.90
18613;DHT22;9436;52.152;21.032;2022-12-07T07:55:50;5.00;99.90
18613;DHT22;9436;52.152;21.032;2022-12-07T07:58:17;5.00;99.90
18613;DHT22;9436;52.152;21.032;2022-12-07T08:00:45;4.70;99.90
18613;DHT22;9436;52.152;21.032;2022-12-07T08:03:12;4.60;99.90
18613;DHT22;9436;52.152;21.032;2022-12-07T08:05:39;4.50;99.90
18613;DHT22;9436;52.152;21.032;2022-12-07T08:08:07;4.40;99.90
18613;DHT22;9436;52.152;21.032;2022-12-07T08:10:34;4.20;99.90
18613;DHT22;9436;52.152;21.032;2022-12-07T08:13:02;4.00;99.90
18613;DHT22;9436;52.152;21.032;2022-12-07T08:15:40;3.90;99.90
18613;DHT22;9436;52.152;21.032;2022-12-07T08:18:09;3.80;99.90
18613;DHT22;9436;52.152;21.032;2022-12-07T08:20:37;3.90;99.90
18613;DHT22;9436;52.152;21.032;2022-12-07T08:23:05;3.90;99.90
18613;DHT22;9436;52.152;21.032;2022-12-07T08:25:32;3.80;99.90
18613;DHT22;9436;52.152;21.032;2022-12-07T08:28:00;3.80;99.90
18613;DHT22;9436;52.152;21.032;2022-12-07T08:30:27;3.80;99.90
18613;DHT22;9436;52.152;21.032;2022-12-07T08:32:55;3.70;99.90
18613;DHT22;9436;52.152;21.032;2022-12-07T08:35:24;3.70;99.90
18613;DHT22;9436;52.152;21.032;2022-12-07T08:37:51;3.70;99.90
18613;DHT22;9436;52.152;21.032;2022-12-07T08:40:18;3.60;99.90
18613;DHT22;9436;52.152;21.032;2022-12-07T08:42:49;3.60;99.90
18613;DHT22;9436;52.152;21.032;2022-12-07T08:45:17;3.60;99.90
18613;DHT22;9436;52.152;21.032;2022-12-07T08:47:46;3.70;99.90
18613;DHT22;9436;52.152;21.032;2022-12-07T08:50:14;3.70;99.90
18613;DHT22;9436;52.152;21.032;2022-12-07T08:52:43;3.70;99.90
18613;DHT22;9436;52.152;21.032;2022-12-07T08:55:11;3.80;99.90
18613;DHT22;9436;52.152;21.032;2022-12-07T08:57:39;3.80;99.90
18613;DHT22;9436;52.152;21.032;2022-12-07T09:00:07;4.10;99.90
18613;DHT22;9436;52.152;21.032;2022-12-07T09:02:35;4.30;99.90
18613;DHT22;9436;52.152;21.032;2022-12-07T09:05:02;4.20;99.90
18613;DHT22;9436;52.152;21.032;2022-12-07T09:07:30;4.20;99.90
18613;DHT22;9436;52.152;21.032;2022-12-07T09:10:00;4.10;99.90
18613;DHT22;9436;52.152;21.032;2022-12-07T09:12:27;4.10;99.90
18613;DHT22;9436;52.152;21.032;2022-12-07T09:14:54;4.10;99.90
18613;DHT22;9436;52.152;21.032;2022-12-07T09:17:21;4.00;99.90
18613;DHT22;9436;52.152;21.032;2022-12-07T09:19:48;4.10;99.90
18613;DHT22;9436;52.152;21.032;2022-12-07T09:22:15;4.20;99.90
18613;DHT22;9436;52.152;21.032;2022-12-07T09:24:42;4.20;99.90
18613;DHT22;9436;52.152;21.032;2022-12-07T09:27:12;4.30;99.90
18613;DHT22;9436;52.152;21.032;2022-12-07T09:29:39;4.40;99.90
18613;DHT22;9436;52.152;21.032;2022-12-07T09:32:07;4.40;99.90
18613;DHT22;9436;52.152;21.032;2022-12-07T09:34:34;4.40;99.90
18613;DHT22;9436;52.152;21.032;2022-12-07T09:37:01;4.40;99.90
18613;DHT22;9436;52.152;21.032;2022-12-07T09:39:29;4.40;99.90
18613;DHT22;9436;52.152;21.032;2022-12-07T09:41:57;4.50;99.90
18613;DHT22;9436;52.152;21.032;2022-12-07T09:44:27;4.50;99.90
18613;DHT22;9436;52.152;21.032;2022-12-07T09:46:55;4.70;99.90
18613;DHT22;9436;52.152;21.032;2022-12-07T09:49:24;4.70;99.90
18613;DHT22;9436;52.152;21.032;2022-12-07T09:52:01;4.70;99.90
18613;DHT22;9436;52.152;21.032;2022-12-07T09:54:29;4.70;99.90
18613;DHT22;9436;52.152;21.032;2022-12-07T09:56:57;4.70;99.90
18613;DHT22;9436;52.152;21.032;2022-12-07T09:59:29;4.60;99.90
18613;DHT22;9436;52.152;21.032;2022-12-07T10:02:23;4.70;99.90
18613;DHT22;9436;52.152;21.032;2022-12-07T10:04:50;4.60;99.90
18613;DHT22;9436;52.152;21.032;2022-12-07T10:07:17;4.50;99.90
18613;DHT22;9436;52.152;21.032;2022-12-07T10:09:45;4.50;99.90
18613;DHT22;9436;52.152;21.032;2022-12-07T10:12:12;4.70;99.90
18613;DHT22;9436;52.152;21.032;2022-12-07T10:14:53;5.60;99.90
18613;DHT22;9436;52.152;21.032;2022-12-07T10:17:31;6.20;99.90
18613;DHT22;9436;52.152;21.032;2022-12-07T10:20:21;6.10;99.90
18613;DHT22;9436;52.152;21.032;2022-12-07T10:22:56;6.60;99.90
18613;DHT22;9436;52.152;21.032;2022-12-07T10:25:26;7.10;99.90
18613;DHT22;9436;52.152;21.032;2022-12-07T10:28:15;7.40;99.90
18613;DHT22;9436;52.152;21.032;2022-12-07T10:30:50;7.60;99.90
18613;DHT22;9436;52.152;21.032;2022-12-07T10:33:32;7.60;99.90
18613;DHT22;9436;52.152;21.032;2022-12-07T10:36:00;7.60;99.90
18613;DHT22;9436;52.152;21.032;2022-12-07T10:38:28;7.60;99.90
18613;DHT22;9436;52.152;21.032;2022-12-07T10:41:05;7.70;99.90
18613;DHT22;9436;52.152;21.032;2022-12-07T10:43:33;7.90;99.90
18613;DHT22;9436;52.152;21.032;2022-12-07T10:46:36;7.60;99.90
18613;DHT22;9436;52.152;21.032;2022-12-07T10:49:17;7.40;99.90
18613;DHT22;9436;52.152;21.032;2022-12-07T10:51:55;7.10;99.90
18613;DHT22;9436;52.152;21.032;2022-12-07T10:54:30;6.50;99.90
18613;DHT22;9436;52.152;21.032;2022-12-07T10:57:16;6.20;99.90
18613;DHT22;9436;52.152;21.032;2022-12-07T10:59:58;5.70;99.90
18613;DHT22;9436;52.152;21.032;2022-12-07T11:05:23;5.40;99.90
18613;DHT22;9436;52.152;21.032;2022-12-07T11:08:02;5.20;99.90
18613;DHT22;9436;52.152;21.032;2022-12-07T11:10:35;5.10;99.90
18613;DHT22;9436;52.152;21.032;2022-12-07T11:13:22;5.00;99.90
18613;DHT22;9436;52.152;21.032;2022-12-07T11:16:11;5.10;99.90
18613;DHT22;9436;52.152;21.032;2022-12-07T11:18:59;5.10;99.90
18613;DHT22;9436;52.152;21.032;2022-12-07T11:21:39;5.00;99.90
18613;DHT22;9436;52.152;21.032;2022-12-07T11:24:14;4.90;99.90
18613;DHT22;9436;52.152;21.032;2022-12-07T11:26:56;5.00;99.90
18613;DHT22;9436;52.152;21.032;2022-12-07T11:29:37;5.00;99.90
18613;DHT22;9436;52.152;21.032;2022-12-07T11:32:13;5.00;99.90
18613;DHT22;9436;52.152;21.032;2022-12-07T11:34:51;4.90;99.90
18613;DHT22;9436;52.152;21.032;2022-12-07T11:37:27;4.90;99.90
18613;DHT22;9436;52.152;21.032;2022-12-07T11:40:00;4.90;99.90
18613;DHT22;9436;52.152;21.032;2022-12-07T11:42:31;4.90;99.90
18613;DHT22;9436;52.152;21.032;2022-12-07T11:45:03;5.10;99.90
18613;DHT22;9436;52.152;21.032;2022-12-07T11:47:43;5.10;99.90
18613;DHT22;9436;52.152;21.032;2022-12-07T11:50:25;5.10;99.90
18613;DHT22;9436;52.152;21.032;2022-12-07T11:52:57;5.20;99.90
18613;DHT22;9436;52.152;21.032;2022-12-07T11:55:30;5.10;99.90
18613;DHT22;9436;52.152;21.032;2022-12-07T11:58:04;5.00;99.90
18613;DHT22;9436;52.152;21.032;2022-12-07T12:00:37;5.00;99.90
18613;DHT22;9436;52.152;21.032;2022-12-07T12:03:10;5.00;99.90
18613;DHT22;9436;52.152;21.032;2022-12-07T12:05:41;4.90;99.90
18613;DHT22;9436;52.152;21.032;2022-12-07T12:08:15;4.90;99.90
18613;DHT22;9436;52.152;21.032;2022-12-07T12:10:54;4.90;99.90
18613;DHT22;9436;52.152;21.032;2022-12-07T12:19:24;4.80;99.90
18613;DHT22;9436;52.152;21.032;2022-12-07T12:21:57;4.80;99.90
18613;DHT22;9436;52.152;21.032;2022-12-07T12:24:28;4.80;99.90
18613;DHT22;9436;52.152;21.032;2022-12-07T12:27:03;4.70;99.90
18613;DHT22;9436;52.152;21.032;2022-12-07T12:29:34;4.60;99.90
18613;DHT22;9436;52.152;21.032;2022-12-07T12:32:10;4.60;99.90
18613;DHT22;9436;52.152;21.032;2022-12-07T12:34:41;4.60;99.90
18613;DHT22;9436;52.152;21.032;2022-12-07T12:43:44;4.50;99.90
18613;DHT22;9436;52.152;21.032;2022-12-07T12:46:54;4.60;99.90
18613;DHT22;9436;52.152;21.032;2022-12-07T12:49:44;4.60;99.90
18613;DHT22;9436;52.152;21.032;2022-12-07T12:52:49;4.60;99.90
18613;DHT22;9436;52.152;21.032;2022-12-07T12:55:26;4.60;99.90
18613;DHT22;9436;52.152;21.032;2022-12-07T12:58:31;4.60;99.90
18613;DHT22;9436;52.152;21.032;2022-12-07T13:01:33;4.60;99.90
18613;DHT22;9436;52.152;21.032;2022-12-07T13:04:21;4.60;99.90
18613;DHT22;9436;52.152;21.032;2022-12-07T13:06:50;4.60;99.90
18613;DHT22;9436;52.152;21.032;2022-12-07T13:09:20;4.60;99.90
18613;DHT22;9436;52.152;21.032;2022-12-07T13:11:48;4.70;99.90
18613;DHT22;9436;52.152;21.032;2022-12-07T13:14:39;4.60;99.90
18613;DHT22;9436;52.152;21.032;2022-12-07T13:17:10;4.70;99.90
18613;DHT22;9436;52.152;21.032;2022-12-07T13:19:58;4.70;99.90
18613;DHT22;9436;52.152;21.032;2022-12-07T13:22:43;4.70;99.90
18613;DHT22;9436;52.152;21.032;2022-12-07T13:25:12;4.60;99.90
18613;DHT22;9436;52.152;21.032;2022-12-07T13:27:51;4.60;99.90
18613;DHT22;9436;52.152;21.032;2022-12-07T13:30:21;4.60;99.90
18613;DHT22;9436;52.152;21.032;2022-12-07T13:32:54;4.80;99.90
18613;DHT22;9436;52.152;21.032;2022-12-07T13:35:32;4.80;99.90
18613;DHT22;9436;52.152;21.032;2022-12-07T13:38:02;4.80;99.90
18613;DHT22;9436;52.152;21.032;2022-12-07T13:40:29;4.90;99.90
18613;DHT22;9436;52.152;21.032;2022-12-07T13:42:58;4.90;99.90
18613;DHT22;9436;52.152;21.032;2022-12-07T13:45:27;4.80;99.90
18613;DHT22;9436;52.152;21.032;2022-12-07T13:48:14;4.80;99.90
18613;DHT22;9436;52.152;21.032;2022-12-07T13:50:41;4.70;99.90
18613;DHT22;9436;52.152;21.032;2022-12-07T13:53:13;4.60;99.90
18613;DHT22;9436;52.152;21.032;2022-12-07T13:55:45;4.60;99.90
18613;DHT22;9436;52.152;21.032;2022-12-07T13:58:12;4.60;99.90
18613;DHT22;9436;52.152;21.032;2022-12-07T14:00:40;4.70;99.90
18613;DHT22;9436;52.152;21.032;2022-12-07T14:03:26;4.80;99.90
18613;DHT22;9436;52.152;21.032;2022-12-07T14:06:17;4.70;99.90
18613;DHT22;9436;52.152;21.032;2022-12-07T14:08:45;4.60;99.90
18613;DHT22;9436;52.152;21.032;2022-12-07T14:11:16;4.50;99.90
18613;DHT22;9436;52.152;21.032;2022-12-07T14:13:57;4.50;99.90
18613;DHT22;9436;52.152;21.032;2022-12-07T14:16:27;4.50;99.90
18613;DHT22;9436;52.152;21.032;2022-12-07T14:18:58;4.60;99.90
18613;DHT22;9436;52.152;21.032;2022-12-07T14:21:27;4.60;99.90
18613;DHT22;9436;52.152;21.032;2022-12-07T14:24:15;4.60;99.90
18613;DHT22;9436;52.152;21.032;2022-12-07T14:26:43;4.50;99.90
18613;DHT22;9436;52.152;21.032;2022-12-07T14:29:32;4.60;99.90
18613;DHT22;9436;52.152;21.032;2022-12-07T14:32:20;4.70;99.90
18613;DHT22;9436;52.152;21.032;2022-12-07T14:34:58;4.60;99.90
18613;DHT22;9436;52.152;21.032;2022-12-07T14:37:27;4.80;99.90
18613;DHT22;9436;52.152;21.032;2022-12-07T14:39:54;4.70;99.90
18613;DHT22;9436;52.152;21.032;2022-12-07T14:42:24;4.80;99.90
18613;DHT22;9436;52.152;21.032;2022-12-07T14:44:52;4.80;99.90
18613;DHT22;9436;52.152;21.032;2022-12-07T14:47:19;4.60;99.90
18613;DHT22;9436;52.152;21.032;2022-12-07T14:49:46;4.70;99.90
18613;DHT22;9436;52.152;21.032;2022-12-07T14:52:17;4.80;99.90
18613;DHT22;9436;52.152;21.032;2022-12-07T14:54:45;5.30;99.90
18613;DHT22;9436;52.152;21.032;2022-12-07T14:57:12;5.60;99.90
18613;DHT22;9436;52.152;21.032;2022-12-07T14:59:39;6.00;99.90
18613;DHT22;9436;52.152;21.032;2022-12-07T15:02:08;6.50;99.90
18613;DHT22;9436;52.152;21.032;2022-12-07T15:04:36;7.00;99.90
18613;DHT22;9436;52.152;21.032;2022-12-07T15:07:05;7.40;99.90
18613;DHT22;9436;52.152;21.032;2022-12-07T15:09:34;7.20;99.90
18613;DHT22;9436;52.152;21.032;2022-12-07T15:12:01;6.90;99.90
18613;DHT22;9436;52.152;21.032;2022-12-07T15:14:28;7.20;99.90
18613;DHT22;9436;52.152;21.032;2022-12-07T15:16:55;6.80;99.90
18613;DHT22;9436;52.152;21.032;2022-12-07T15:19:23;6.30;99.90
18613;DHT22;9436;52.152;21.032;2022-12-07T15:21:51;6.00;99.90
18613;DHT22;9436;52.152;21.032;2022-12-07T15:24:19;5.70;99.90
18613;DHT22;9436;52.152;21.032;2022-12-07T15:26:48;5.40;99.90
18613;DHT22;9436;52.152;21.032;2022-12-07T15:29:15;5.20;99.90
18613;DHT22;9436;52.152;21.032;2022-12-07T15:31:43;5.20;99.90
18613;DHT22;9436;52.152;21.032;2022-12-07T15:34:11;5.40;99.90
18613;DHT22;9436;52.152;21.032;2022-12-07T15:36:38;5.40;99.90
18613;DHT22;9436;52.152;21.032;2022-12-07T15:39:05;5.30;99.90
18613;DHT22;9436;52.152;21.032;2022-12-07T15:41:32;5.20;99.90
18613;DHT22;9436;52.152;21.032;2022-12-07T15:44:00;5.00;99.90
18613;DHT22;9436;52.152;21.032;2022-12-07T15:46:45;5.90;99.90
18613;DHT22;9436;52.152;21.032;2022-12-07T15:49:17;6.10;99.90
18613;DHT22;9436;52.152;21.032;2022-12-07T15:51:45;6.40;99.90
18613;DHT22;9436;52.152;21.032;2022-12-07T15:54:14;6.60;99.90
18613;DHT22;9436;52.152;21.032;2022-12-07T15:56:42;6.40;99.90
18613;DHT22;9436;52.152;21.032;2022-12-07T15:59:10;6.00;99.90
18613;DHT22;9436;52.152;21.032;2022-12-07T16:01:38;6.00;99.90
18613;DHT22;9436;52.152;21.032;2022-12-07T16:04:05;5.70;99.90
18613;DHT22;9436;52.152;21.032;2022-12-07T16:06:32;5.40;99.90
18613;DHT22;9436;52.152;21.032;2022-12-07T16:08:59;5.10;99.90
18613;DHT22;9436;52.152;21.032;2022-12-07T16:11:26;4.80;99.90
18613;DHT22;9436;52.152;21.032;2022-12-07T16:13:53;4.70;99.90
18613;DHT22;9436;52.152;21.032;2022-12-07T16:16:21;4.50;99.90
18613;DHT22;9436;52.152;21.032;2022-12-07T16:18:50;4.40;99.90
18613;DHT22;9436;52.152;21.032;2022-12-07T16:21:17;4.40;99.90
18613;DHT22;9436;52.152;21.032;2022-12-07T16:23:44;4.30;99.90
18613;DHT22;9436;52.152;21.032;2022-12-07T16:26:13;4.30;99.90
18613;DHT22;9436;52.152;21.032;2022-12-07T16:28:40;4.20;99.90
18613;DHT22;9436;52.152;21.032;2022-12-07T16:31:09;4.20;99.90